sensor_id;sensor_type;location;lat;lon;timestamp;P1;durP1;ratioP1;P2;durP2;ratioP2
19329;SDS011;9799;48.214;16.388;2023-12-20T00:00:57;38.60;;;29.13;;
19329;SDS011;9799;48.214;16.388;2023-12-20T00:04:19;35.33;;;26.00;;
19329;SDS011;9799;48.214;16.388;2023-12-20T00:07:41;39.80;;;28.33;;
19329;SDS011;9799;48.214;16.388;2023-12-20T00:11:02;35.67;;;28.10;;
19329;SDS011;9799;48.214;16.388;2023-12-20T00:14:23;36.40;;;27.13;;
19329;SDS011;9799;48.214;16.388;2023-12-20T00:17:45;35.53;;;24.77;;
19329;SDS011;9799;48.214;16.388;2023-12-20T00:21:07;29.90;;;24.00;;
19329;SDS011;9799;48.214;16.388;2023-12-20T00:24:29;32.07;;;24.70;;
19329;SDS011;9799;48.214;16.388;2023-12-20T00:27:50;32.47;;;24.43;;
19329;SDS011;9799;48.214;16.388;2023-12-20T00:31:11;29.50;;;23.13;;
19329;SDS011;9799;48.214;16.388;2023-12-20T00:34:32;30.63;;;23.77;;
19329;SDS011;9799;48.214;16.388;2023-12-20T00:37:55;30.37;;;23.40;;
19329;SDS011;9799;48.214;16.388;2023-12-20T00:41:16;31.67;;;22.97;;
19329;SDS011;9799;48.214;16.388;2023-12-20T00:44:37;32.43;;;23.57;;
19329;SDS011;9799;48.214;16.388;2023-12-20T00:47:59;29.00;;;22.00;;
19329;SDS011;9799;48.214;16.388;2023-12-20T00:51:20;31.90;;;22.77;;
19329;SDS011;9799;48.214;16.388;2023-12-20T00:54:43;30.20;;;23.87;;
19329;SDS011;9799;48.214;16.388;2023-12-20T00:58:04;34.27;;;25.03;;
19329;SDS011;9799;48.214;16.388;2023-12-20T01:01:25;33.37;;;24.63;;
19329;SDS011;9799;48.214;16.388;2023-12-20T01:04:47;29.50;;;22.77;;
19329;SDS011;9799;48.214;16.388;2023-12-20T01:08:08;29.30;;;23.03;;
19329;SDS011;9799;48.214;16.388;2023-12-20T01:11:30;32.63;;;22.73;;
19329;SDS011;9799;48.214;16.388;2023-12-20T01:14:52;30.40;;;22.83;;
19329;SDS011;9799;48.214;16.388;2023-12-20T01:18:13;38.27;;;25.47;;
19329;SDS011;9799;48.214;16.388;2023-12-20T01:21:34;33.83;;;24.77;;
19329;SDS011;9799;48.214;16.388;2023-12-20T01:24:56;30.83;;;22.87;;
19329;SDS011;9799;48.214;16.388;2023-12-20T01:28:18;28.57;;;23.40;;
19329;SDS011;9799;48.214;16.388;2023-12-20T01:31:39;31.67;;;23.57;;
19329;SDS011;9799;48.214;16.388;2023-12-20T01:35:01;30.97;;;23.93;;
19329;SDS011;9799;48.214;16.388;2023-12-20T01:38:22;34.77;;;25.50;;
19329;SDS011;9799;48.214;16.388;2023-12-20T01:41:43;33.47;;;24.73;;
19329;SDS011;9799;48.214;16.388;2023-12-20T01:45:07;34.33;;;25.67;;
19329;SDS011;9799;48.214;16.388;2023-12-20T01:48:29;38.20;;;26.77;;
19329;SDS011;9799;48.214;16.388;2023-12-20T01:51:52;34.37;;;25.93;;
19329;SDS011;9799;48.214;16.388;2023-12-20T01:55:22;33.10;;;24.83;;
19329;SDS011;9799;48.214;16.388;2023-12-20T01:58:44;35.73;;;26.43;;
19329;SDS011;9799;48.214;16.388;2023-12-20T02:02:08;39.03;;;25.83;;
19329;SDS011;9799;48.214;16.388;2023-12-20T02:05:32;36.03;;;26.10;;
19329;SDS011;9799;48.214;16.388;2023-12-20T02:08:55;36.73;;;25.50;;
19329;SDS011;9799;48.214;16.388;2023-12-20T02:12:16;33.77;;;25.20;;
19329;SDS011;9799;48.214;16.388;2023-12-20T02:15:38;34.00;;;24.30;;
19329;SDS011;9799;48.214;16.388;2023-12-20T02:19:03;34.97;;;23.80;;
19329;SDS011;9799;48.214;16.388;2023-12-20T02:22:29;33.07;;;24.07;;
19329;SDS011;9799;48.214;16.388;2023-12-20T02:25:50;33.73;;;25.73;;
19329;SDS011;9799;48.214;16.388;2023-12-20T02:29:11;39.07;;;25.50;;
19329;SDS011;9799;48.214;16.388;2023-12-20T02:32:33;31.93;;;24.30;;
19329;SDS011;9799;48.214;16.388;2023-12-20T02:35:54;36.00;;;24.60;;
19329;SDS011;9799;48.214;16.388;2023-12-20T02:39:17;35.37;;;25.83;;
19329;SDS011;9799;48.214;16.388;2023-12-20T02:42:39;33.57;;;25.53;;
19329;SDS011;9799;48.214;16.388;2023-12-20T02:46:00;35.30;;;25.03;;
19329;SDS011;9799;48.214;16.388;2023-12-20T02:49:22;34.60;;;23.87;;
19329;SDS011;9799;48.214;16.388;2023-12-20T02:52:44;30.73;;;23.77;;
19329;SDS011;9799;48.214;16.388;2023-12-20T02:56:07;32.67;;;25.30;;
19329;SDS011;9799;48.214;16.388;2023-12-20T02:59:28;31.43;;;24.40;;
19329;SDS011;9799;48.214;16.388;2023-12-20T03:02:49;32.03;;;23.17;;
19329;SDS011;9799;48.214;16.388;2023-12-20T03:06:11;33.03;;;22.80;;
19329;SDS011;9799;48.214;16.388;2023-12-20T03:09:32;34.37;;;23.87;;
19329;SDS011;9799;48.214;16.388;2023-12-20T03:12:54;31.13;;;23.17;;
19329;SDS011;9799;48.214;16.388;2023-12-20T03:16:16;31.40;;;22.13;;
19329;SDS011;9799;48.214;16.388;2023-12-20T03:19:37;28.33;;;20.93;;
19329;SDS011;9799;48.214;16.388;2023-12-20T03:22:58;26.27;;;22.67;;
19329;SDS011;9799;48.214;16.388;2023-12-20T03:26:19;29.03;;;22.60;;
19329;SDS011;9799;48.214;16.388;2023-12-20T03:29:43;27.70;;;20.83;;
19329;SDS011;9799;48.214;16.388;2023-12-20T03:33:04;27.33;;;21.33;;
19329;SDS011;9799;48.214;16.388;2023-12-20T03:36:27;35.20;;;23.50;;
19329;SDS011;9799;48.214;16.388;2023-12-20T03:39:48;33.30;;;23.10;;
19329;SDS011;9799;48.214;16.388;2023-12-20T03:43:09;29.60;;;23.37;;
19329;SDS011;9799;48.214;16.388;2023-12-20T03:46:32;31.87;;;23.33;;
19329;SDS011;9799;48.214;16.388;2023-12-20T03:49:53;33.07;;;24.33;;
19329;SDS011;9799;48.214;16.388;2023-12-20T03:53:14;31.50;;;24.23;;
19329;SDS011;9799;48.214;16.388;2023-12-20T03:56:36;31.53;;;24.93;;
19329;SDS011;9799;48.214;16.388;2023-12-20T03:59:57;32.47;;;23.93;;
19329;SDS011;9799;48.214;16.388;2023-12-20T04:03:20;32.33;;;25.37;;
19329;SDS011;9799;48.214;16.388;2023-12-20T04:06:41;33.33;;;25.50;;
19329;SDS011;9799;48.214;16.388;2023-12-20T04:10:03;32.03;;;24.87;;
19329;SDS011;9799;48.214;16.388;2023-12-20T04:13:25;31.20;;;23.43;;
19329;SDS011;9799;48.214;16.388;2023-12-20T04:16:46;32.93;;;24.90;;
19329;SDS011;9799;48.214;16.388;2023-12-20T04:20:09;29.47;;;23.77;;
19329;SDS011;9799;48.214;16.388;2023-12-20T04:23:31;32.63;;;21.77;;
19329;SDS011;9799;48.214;16.388;2023-12-20T04:26:52;30.50;;;24.37;;
19329;SDS011;9799;48.214;16.388;2023-12-20T04:30:13;33.90;;;23.80;;
19329;SDS011;9799;48.214;16.388;2023-12-20T04:33:35;31.67;;;24.87;;
19329;SDS011;9799;48.214;16.388;2023-12-20T04:36:57;32.27;;;24.37;;
19329;SDS011;9799;48.214;16.388;2023-12-20T04:40:19;32.17;;;23.80;;
19329;SDS011;9799;48.214;16.388;2023-12-20T04:43:40;29.67;;;23.20;;
19329;SDS011;9799;48.214;16.388;2023-12-20T04:47:01;33.17;;;23.07;;
19329;SDS011;9799;48.214;16.388;2023-12-20T04:50:22;27.27;;;22.47;;
19329;SDS011;9799;48.214;16.388;2023-12-20T04:53:45;26.53;;;21.37;;
19329;SDS011;9799;48.214;16.388;2023-12-20T04:57:06;32.17;;;22.53;;
19329;SDS011;9799;48.214;16.388;2023-12-20T05:00:28;25.03;;;21.00;;
19329;SDS011;9799;48.214;16.388;2023-12-20T05:03:49;38.60;;;27.87;;
19329;SDS011;9799;48.214;16.388;2023-12-20T05:07:11;32.23;;;24.27;;
19329;SDS011;9799;48.214;16.388;2023-12-20T05:10:33;26.90;;;21.53;;
19329;SDS011;9799;48.214;16.388;2023-12-20T05:13:56;30.43;;;23.67;;
19329;SDS011;9799;48.214;16.388;2023-12-20T05:17:17;29.03;;;22.77;;
19329;SDS011;9799;48.214;16.388;2023-12-20T05:20:40;31.30;;;22.93;;
19329;SDS011;9799;48.214;16.388;2023-12-20T05:24:01;30.57;;;23.20;;
19329;SDS011;9799;48.214;16.388;2023-12-20T05:27:24;26.83;;;21.27;;
19329;SDS011;9799;48.214;16.388;2023-12-20T05:30:45;27.77;;;22.57;;
19329;SDS011;9799;48.214;16.388;2023-12-20T05:34:06;29.30;;;22.03;;
19329;SDS011;9799;48.214;16.388;2023-12-20T05:37:27;27.00;;;21.87;;
19329;SDS011;9799;48.214;16.388;2023-12-20T05:40:49;27.57;;;21.10;;
19329;SDS011;9799;48.214;16.388;2023-12-20T05:44:11;22.37;;;17.27;;
19329;SDS011;9799;48.214;16.388;2023-12-20T05:47:32;22.73;;;15.10;;
19329;SDS011;9799;48.214;16.388;2023-12-20T05:50:57;17.57;;;14.80;;
19329;SDS011;9799;48.214;16.388;2023-12-20T05:54:18;23.07;;;17.73;;
19329;SDS011;9799;48.214;16.388;2023-12-20T05:57:39;13.20;;;8.57;;
19329;SDS011;9799;48.214;16.388;2023-12-20T06:01:04;20.33;;;15.57;;
19329;SDS011;9799;48.214;16.388;2023-12-20T06:04:33;18.87;;;14.80;;
19329;SDS011;9799;48.214;16.388;2023-12-20T06:07:54;31.17;;;15.97;;
19329;SDS011;9799;48.214;16.388;2023-12-20T06:11:17;22.97;;;17.30;;
19329;SDS011;9799;48.214;16.388;2023-12-20T06:14:38;20.87;;;17.30;;
19329;SDS011;9799;48.214;16.388;2023-12-20T06:18:00;25.67;;;17.23;;
19329;SDS011;9799;48.214;16.388;2023-12-20T06:21:22;20.00;;;15.23;;
19329;SDS011;9799;48.214;16.388;2023-12-20T06:24:43;10.00;;;8.77;;
19329;SDS011;9799;48.214;16.388;2023-12-20T06:28:04;12.40;;;9.43;;
19329;SDS011;9799;48.214;16.388;2023-12-20T06:31:26;6.87;;;5.80;;
19329;SDS011;9799;48.214;16.388;2023-12-20T06:34:49;5.40;;;4.03;;
19329;SDS011;9799;48.214;16.388;2023-12-20T06:38:10;6.40;;;4.47;;
19329;SDS011;9799;48.214;16.388;2023-12-20T06:41:31;6.10;;;4.57;;
19329;SDS011;9799;48.214;16.388;2023-12-20T06:44:53;5.87;;;4.07;;
19329;SDS011;9799;48.214;16.388;2023-12-20T06:48:14;5.87;;;4.63;;
19329;SDS011;9799;48.214;16.388;2023-12-20T06:51:36;4.47;;;3.07;;
19329;SDS011;9799;48.214;16.388;2023-12-20T06:54:58;6.03;;;3.67;;
19329;SDS011;9799;48.214;16.388;2023-12-20T06:58:19;3.77;;;3.20;;
19329;SDS011;9799;48.214;16.388;2023-12-20T07:01:40;7.47;;;3.30;;
19329;SDS011;9799;48.214;16.388;2023-12-20T07:05:01;3.80;;;3.20;;
19329;SDS011;9799;48.214;16.388;2023-12-20T07:08:25;5.20;;;3.70;;
19329;SDS011;9799;48.214;16.388;2023-12-20T07:11:47;5.57;;;3.93;;
19329;SDS011;9799;48.214;16.388;2023-12-20T07:15:08;6.87;;;4.43;;
19329;SDS011;9799;48.214;16.388;2023-12-20T07:18:30;8.93;;;4.70;;
19329;SDS011;9799;48.214;16.388;2023-12-20T07:21:51;5.67;;;3.83;;
19329;SDS011;9799;48.214;16.388;2023-12-20T07:25:14;7.53;;;4.40;;
19329;SDS011;9799;48.214;16.388;2023-12-20T07:28:35;10.03;;;3.90;;
19329;SDS011;9799;48.214;16.388;2023-12-20T07:31:56;7.00;;;4.20;;
19329;SDS011;9799;48.214;16.388;2023-12-20T07:35:18;4.87;;;3.73;;
19329;SDS011;9799;48.214;16.388;2023-12-20T07:38:39;15.70;;;7.37;;
19329;SDS011;9799;48.214;16.388;2023-12-20T07:42:02;7.83;;;5.83;;
19329;SDS011;9799;48.214;16.388;2023-12-20T07:45:24;9.13;;;4.70;;
19329;SDS011;9799;48.214;16.388;2023-12-20T07:48:45;7.10;;;4.67;;
19329;SDS011;9799;48.214;16.388;2023-12-20T07:52:06;5.33;;;4.13;;
19329;SDS011;9799;48.214;16.388;2023-12-20T07:55:31;7.20;;;5.00;;
19329;SDS011;9799;48.214;16.388;2023-12-20T07:58:54;6.37;;;4.63;;
19329;SDS011;9799;48.214;16.388;2023-12-20T08:02:15;5.87;;;4.20;;
19329;SDS011;9799;48.214;16.388;2023-12-20T08:05:36;8.30;;;4.77;;
19329;SDS011;9799;48.214;16.388;2023-12-20T08:08:59;4.97;;;4.10;;
19329;SDS011;9799;48.214;16.388;2023-12-20T08:12:20;13.10;;;5.20;;
19329;SDS011;9799;48.214;16.388;2023-12-20T08:15:43;9.83;;;4.43;;
19329;SDS011;9799;48.214;16.388;2023-12-20T08:19:06;6.80;;;3.97;;
19329;SDS011;9799;48.214;16.388;2023-12-20T08:22:27;5.50;;;4.10;;
19329;SDS011;9799;48.214;16.388;2023-12-20T08:25:48;7.40;;;4.80;;
19329;SDS011;9799;48.214;16.388;2023-12-20T08:29:09;4.63;;;3.97;;
19329;SDS011;9799;48.214;16.388;2023-12-20T08:32:34;7.73;;;4.27;;
19329;SDS011;9799;48.214;16.388;2023-12-20T08:35:55;8.60;;;4.03;;
19329;SDS011;9799;48.214;16.388;2023-12-20T08:39:17;5.60;;;4.13;;
19329;SDS011;9799;48.214;16.388;2023-12-20T08:42:38;5.63;;;4.63;;
19329;SDS011;9799;48.214;16.388;2023-12-20T08:45:59;9.47;;;4.83;;
19329;SDS011;9799;48.214;16.388;2023-12-20T08:49:22;6.63;;;4.60;;
19329;SDS011;9799;48.214;16.388;2023-12-20T08:52:44;6.77;;;5.00;;
19329;SDS011;9799;48.214;16.388;2023-12-20T08:56:06;6.83;;;4.43;;
19329;SDS011;9799;48.214;16.388;2023-12-20T08:59:29;7.10;;;4.47;;
19329;SDS011;9799;48.214;16.388;2023-12-20T09:02:51;5.60;;;4.43;;
19329;SDS011;9799;48.214;16.388;2023-12-20T09:06:13;9.33;;;4.50;;
19329;SDS011;9799;48.214;16.388;2023-12-20T09:09:35;5.83;;;4.33;;
19329;SDS011;9799;48.214;16.388;2023-12-20T09:12:56;5.33;;;4.10;;
19329;SDS011;9799;48.214;16.388;2023-12-20T09:16:18;6.37;;;4.07;;
19329;SDS011;9799;48.214;16.388;2023-12-20T09:19:39;6.93;;;4.10;;
19329;SDS011;9799;48.214;16.388;2023-12-20T09:23:02;5.70;;;3.50;;
19329;SDS011;9799;48.214;16.388;2023-12-20T09:26:23;3.43;;;3.13;;
19329;SDS011;9799;48.214;16.388;2023-12-20T09:29:44;5.07;;;4.30;;
19329;SDS011;9799;48.214;16.388;2023-12-20T09:33:08;3.67;;;3.27;;
19329;SDS011;9799;48.214;16.388;2023-12-20T09:36:29;2.33;;;2.13;;
19329;SDS011;9799;48.214;16.388;2023-12-20T09:39:55;6.47;;;2.60;;
19329;SDS011;9799;48.214;16.388;2023-12-20T09:43:18;2.87;;;2.37;;
19329;SDS011;9799;48.214;16.388;2023-12-20T09:46:42;2.37;;;2.17;;
19329;SDS011;9799;48.214;16.388;2023-12-20T09:50:05;3.23;;;2.47;;
19329;SDS011;9799;48.214;16.388;2023-12-20T09:53:27;2.77;;;2.50;;
19329;SDS011;9799;48.214;16.388;2023-12-20T09:56:53;3.10;;;2.57;;
19329;SDS011;9799;48.214;16.388;2023-12-20T10:04:07;3.00;;;2.47;;
19329;SDS011;9799;48.214;16.388;2023-12-20T10:07:31;43.60;;;30.30;;
19329;SDS011;9799;48.214;16.388;2023-12-20T10:10:53;8.50;;;6.10;;
19329;SDS011;9799;48.214;16.388;2023-12-20T10:14:21;3.43;;;3.00;;
19329;SDS011;9799;48.214;16.388;2023-12-20T10:17:43;3.67;;;3.03;;
19329;SDS011;9799;48.214;16.388;2023-12-20T10:21:05;3.33;;;2.90;;
19329;SDS011;9799;48.214;16.388;2023-12-20T10:24:28;4.53;;;3.27;;
19329;SDS011;9799;48.214;16.388;2023-12-20T10:27:50;6.73;;;2.63;;
19329;SDS011;9799;48.214;16.388;2023-12-20T10:31:30;3.90;;;3.10;;
19329;SDS011;9799;48.214;16.388;2023-12-20T10:34:53;3.60;;;2.87;;
19329;SDS011;9799;48.214;16.388;2023-12-20T10:38:15;3.97;;;3.10;;
19329;SDS011;9799;48.214;16.388;2023-12-20T10:41:36;3.57;;;3.13;;
19329;SDS011;9799;48.214;16.388;2023-12-20T10:45:00;3.43;;;3.13;;
19329;SDS011;9799;48.214;16.388;2023-12-20T10:48:23;3.50;;;2.50;;
19329;SDS011;9799;48.214;16.388;2023-12-20T10:51:48;3.53;;;3.00;;
19329;SDS011;9799;48.214;16.388;2023-12-20T10:55:11;2.60;;;2.40;;
19329;SDS011;9799;48.214;16.388;2023-12-20T10:58:32;3.10;;;2.80;;
19329;SDS011;9799;48.214;16.388;2023-12-20T11:01:56;3.17;;;2.70;;
19329;SDS011;9799;48.214;16.388;2023-12-20T11:05:28;2.87;;;2.63;;
19329;SDS011;9799;48.214;16.388;2023-12-20T11:08:55;3.97;;;2.80;;
19329;SDS011;9799;48.214;16.388;2023-12-20T11:12:32;3.87;;;3.00;;
19329;SDS011;9799;48.214;16.388;2023-12-20T11:15:58;3.80;;;3.23;;
19329;SDS011;9799;48.214;16.388;2023-12-20T11:19:19;4.27;;;2.90;;
19329;SDS011;9799;48.214;16.388;2023-12-20T11:22:52;3.53;;;3.10;;
19329;SDS011;9799;48.214;16.388;2023-12-20T11:26:15;4.30;;;3.13;;
19329;SDS011;9799;48.214;16.388;2023-12-20T11:29:37;3.10;;;2.80;;
19329;SDS011;9799;48.214;16.388;2023-12-20T11:32:59;7.90;;;3.50;;
19329;SDS011;9799;48.214;16.388;2023-12-20T11:36:20;5.37;;;3.17;;
19329;SDS011;9799;48.214;16.388;2023-12-20T11:39:54;5.00;;;2.77;;
19329;SDS011;9799;48.214;16.388;2023-12-20T11:43:29;2.80;;;2.50;;
19329;SDS011;9799;48.214;16.388;2023-12-20T11:46:51;2.13;;;1.93;;
19329;SDS011;9799;48.214;16.388;2023-12-20T11:50:13;3.13;;;2.40;;
19329;SDS011;9799;48.214;16.388;2023-12-20T11:53:35;3.03;;;2.13;;
19329;SDS011;9799;48.214;16.388;2023-12-20T11:56:57;2.63;;;2.43;;
19329;SDS011;9799;48.214;16.388;2023-12-20T12:00:19;4.00;;;2.67;;
19329;SDS011;9799;48.214;16.388;2023-12-20T12:03:41;3.50;;;2.50;;
19329;SDS011;9799;48.214;16.388;2023-12-20T12:07:02;2.93;;;2.57;;
19329;SDS011;9799;48.214;16.388;2023-12-20T12:10:25;3.10;;;2.67;;
19329;SDS011;9799;48.214;16.388;2023-12-20T12:13:48;2.53;;;2.27;;
19329;SDS011;9799;48.214;16.388;2023-12-20T12:17:10;2.43;;;2.23;;
19329;SDS011;9799;48.214;16.388;2023-12-20T12:20:32;2.43;;;2.20;;
19329;SDS011;9799;48.214;16.388;2023-12-20T12:24:06;2.80;;;2.27;;
19329;SDS011;9799;48.214;16.388;2023-12-20T12:27:28;3.40;;;1.93;;
19329;SDS011;9799;48.214;16.388;2023-12-20T12:30:57;2.10;;;1.70;;
19329;SDS011;9799;48.214;16.388;2023-12-20T12:34:19;2.07;;;1.87;;
19329;SDS011;9799;48.214;16.388;2023-12-20T12:37:40;2.10;;;1.70;;
19329;SDS011;9799;48.214;16.388;2023-12-20T12:41:02;2.07;;;1.90;;
19329;SDS011;9799;48.214;16.388;2023-12-20T12:44:25;3.67;;;1.90;;
19329;SDS011;9799;48.214;16.388;2023-12-20T12:47:47;2.20;;;2.00;;
19329;SDS011;9799;48.214;16.388;2023-12-20T12:51:09;2.43;;;1.97;;
19329;SDS011;9799;48.214;16.388;2023-12-20T12:54:33;2.23;;;2.03;;
19329;SDS011;9799;48.214;16.388;2023-12-20T12:57:55;4.10;;;3.70;;
19329;SDS011;9799;48.214;16.388;2023-12-20T13:01:16;3.77;;;2.20;;
19329;SDS011;9799;48.214;16.388;2023-12-20T13:04:39;2.27;;;2.07;;
19329;SDS011;9799;48.214;16.388;2023-12-20T13:08:00;2.70;;;2.43;;
19329;SDS011;9799;48.214;16.388;2023-12-20T13:11:22;2.40;;;2.07;;
19329;SDS011;9799;48.214;16.388;2023-12-20T13:14:44;2.37;;;2.00;;
19329;SDS011;9799;48.214;16.388;2023-12-20T13:18:06;2.77;;;2.20;;
19329;SDS011;9799;48.214;16.388;2023-12-20T13:21:29;3.73;;;2.43;;
19329;SDS011;9799;48.214;16.388;2023-12-20T13:24:51;3.77;;;2.53;;
19329;SDS011;9799;48.214;16.388;2023-12-20T13:28:12;2.87;;;2.17;;
19329;SDS011;9799;48.214;16.388;2023-12-20T13:31:37;2.80;;;1.90;;
19329;SDS011;9799;48.214;16.388;2023-12-20T13:34:59;2.70;;;2.10;;
19329;SDS011;9799;48.214;16.388;2023-12-20T13:38:22;2.13;;;1.70;;
19329;SDS011;9799;48.214;16.388;2023-12-20T13:41:43;2.90;;;2.00;;
19329;SDS011;9799;48.214;16.388;2023-12-20T13:45:05;4.53;;;1.60;;
19329;SDS011;9799;48.214;16.388;2023-12-20T13:48:27;1.60;;;1.50;;
19329;SDS011;9799;48.214;16.388;2023-12-20T13:51:48;2.10;;;1.90;;
19329;SDS011;9799;48.214;16.388;2023-12-20T13:55:11;2.30;;;1.80;;
19329;SDS011;9799;48.214;16.388;2023-12-20T13:58:32;2.17;;;1.97;;
19329;SDS011;9799;48.214;16.388;2023-12-20T14:01:53;3.17;;;2.20;;
19329;SDS011;9799;48.214;16.388;2023-12-20T14:05:16;2.70;;;2.50;;
19329;SDS011;9799;48.214;16.388;2023-12-20T14:08:38;1.97;;;1.63;;
19329;SDS011;9799;48.214;16.388;2023-12-20T14:12:01;2.13;;;1.97;;
19329;SDS011;9799;48.214;16.388;2023-12-20T14:15:22;1.60;;;1.50;;
19329;SDS011;9799;48.214;16.388;2023-12-20T14:18:44;2.23;;;2.03;;
19329;SDS011;9799;48.214;16.388;2023-12-20T14:22:06;2.33;;;2.10;;
19329;SDS011;9799;48.214;16.388;2023-12-20T14:25:27;2.23;;;1.93;;
19329;SDS011;9799;48.214;16.388;2023-12-20T14:28:49;1.80;;;1.40;;
19329;SDS011;9799;48.214;16.388;2023-12-20T14:32:11;2.33;;;1.97;;
19329;SDS011;9799;48.214;16.388;2023-12-20T14:35:34;2.50;;;2.30;;
19329;SDS011;9799;48.214;16.388;2023-12-20T14:38:55;2.50;;;1.77;;
19329;SDS011;9799;48.214;16.388;2023-12-20T14:42:16;1.97;;;1.67;;
19329;SDS011;9799;48.214;16.388;2023-12-20T14:45:38;3.80;;;2.10;;
19329;SDS011;9799;48.214;16.388;2023-12-20T14:49:00;6.80;;;5.17;;
19329;SDS011;9799;48.214;16.388;2023-12-20T14:52:22;2.33;;;1.97;;
19329;SDS011;9799;48.214;16.388;2023-12-20T14:55:43;7.30;;;2.27;;
19329;SDS011;9799;48.214;16.388;2023-12-20T14:59:05;3.30;;;2.93;;
19329;SDS011;9799;48.214;16.388;2023-12-20T15:02:29;2.93;;;2.50;;
19329;SDS011;9799;48.214;16.388;2023-12-20T15:05:51;1.90;;;1.70;;
19329;SDS011;9799;48.214;16.388;2023-12-20T15:09:12;3.30;;;1.63;;
19329;SDS011;9799;48.214;16.388;2023-12-20T15:12:33;1.67;;;1.57;;
19329;SDS011;9799;48.214;16.388;2023-12-20T15:15:54;2.57;;;1.70;;
19329;SDS011;9799;48.214;16.388;2023-12-20T15:19:17;2.27;;;1.90;;
19329;SDS011;9799;48.214;16.388;2023-12-20T15:22:38;2.37;;;1.77;;
19329;SDS011;9799;48.214;16.388;2023-12-20T15:26:00;2.47;;;2.03;;
19329;SDS011;9799;48.214;16.388;2023-12-20T15:29:22;2.63;;;2.27;;
19329;SDS011;9799;48.214;16.388;2023-12-20T15:32:43;2.77;;;2.30;;
19329;SDS011;9799;48.214;16.388;2023-12-20T15:36:06;2.73;;;1.90;;
19329;SDS011;9799;48.214;16.388;2023-12-20T15:39:28;2.10;;;1.90;;
19329;SDS011;9799;48.214;16.388;2023-12-20T15:42:49;2.60;;;2.40;;
19329;SDS011;9799;48.214;16.388;2023-12-20T15:46:10;2.90;;;1.83;;
19329;SDS011;9799;48.214;16.388;2023-12-20T15:49:32;2.77;;;2.03;;
19329;SDS011;9799;48.214;16.388;2023-12-20T15:52:54;2.37;;;2.10;;
19329;SDS011;9799;48.214;16.388;2023-12-20T15:56:15;3.33;;;2.23;;
19329;SDS011;9799;48.214;16.388;2023-12-20T15:59:37;2.30;;;2.10;;
19329;SDS011;9799;48.214;16.388;2023-12-20T16:02:58;2.93;;;2.50;;
19329;SDS011;9799;48.214;16.388;2023-12-20T16:06:19;2.70;;;2.27;;
19329;SDS011;9799;48.214;16.388;2023-12-20T16:09:42;3.10;;;2.63;;
19329;SDS011;9799;48.214;16.388;2023-12-20T16:13:04;2.50;;;2.20;;
19329;SDS011;9799;48.214;16.388;2023-12-20T16:16:25;2.23;;;2.03;;
19329;SDS011;9799;48.214;16.388;2023-12-20T16:19:46;2.73;;;2.37;;
19329;SDS011;9799;48.214;16.388;2023-12-20T16:23:07;3.10;;;2.80;;
19329;SDS011;9799;48.214;16.388;2023-12-20T16:26:30;2.20;;;2.00;;
19329;SDS011;9799;48.214;16.388;2023-12-20T16:29:52;21.23;;;14.30;;
19329;SDS011;9799;48.214;16.388;2023-12-20T16:33:13;4.63;;;4.23;;
19329;SDS011;9799;48.214;16.388;2023-12-20T16:36:47;4.23;;;3.80;;
19329;SDS011;9799;48.214;16.388;2023-12-20T16:40:11;5.80;;;5.10;;
19329;SDS011;9799;48.214;16.388;2023-12-20T16:43:33;2.70;;;2.50;;
19329;SDS011;9799;48.214;16.388;2023-12-20T16:46:55;6.40;;;3.10;;
19329;SDS011;9799;48.214;16.388;2023-12-20T16:50:16;5.37;;;4.40;;
19329;SDS011;9799;48.214;16.388;2023-12-20T16:53:37;2.87;;;2.53;;
19329;SDS011;9799;48.214;16.388;2023-12-20T16:56:58;3.17;;;2.53;;
19329;SDS011;9799;48.214;16.388;2023-12-20T17:00:21;8.93;;;3.87;;
19329;SDS011;9799;48.214;16.388;2023-12-20T17:03:43;2.30;;;2.10;;
19329;SDS011;9799;48.214;16.388;2023-12-20T17:07:04;3.53;;;2.63;;
19329;SDS011;9799;48.214;16.388;2023-12-20T17:10:25;2.40;;;2.20;;
19329;SDS011;9799;48.214;16.388;2023-12-20T17:13:47;6.93;;;4.83;;
19329;SDS011;9799;48.214;16.388;2023-12-20T17:17:09;3.83;;;2.60;;
19329;SDS011;9799;48.214;16.388;2023-12-20T17:20:31;4.47;;;2.20;;
19329;SDS011;9799;48.214;16.388;2023-12-20T17:23:52;4.63;;;2.33;;
19329;SDS011;9799;48.214;16.388;2023-12-20T17:27:13;2.13;;;1.90;;
19329;SDS011;9799;48.214;16.388;2023-12-20T17:30:35;2.80;;;2.00;;
19329;SDS011;9799;48.214;16.388;2023-12-20T17:33:57;15.77;;;12.57;;
19329;SDS011;9799;48.214;16.388;2023-12-20T17:37:18;3.13;;;2.37;;
19329;SDS011;9799;48.214;16.388;2023-12-20T17:40:40;2.80;;;1.97;;
19329;SDS011;9799;48.214;16.388;2023-12-20T17:44:01;3.10;;;2.07;;
19329;SDS011;9799;48.214;16.388;2023-12-20T17:47:22;2.57;;;2.33;;
19329;SDS011;9799;48.214;16.388;2023-12-20T17:50:45;6.27;;;2.57;;
19329;SDS011;9799;48.214;16.388;2023-12-20T17:54:06;3.30;;;2.40;;
19329;SDS011;9799;48.214;16.388;2023-12-20T17:57:27;3.40;;;2.10;;
19329;SDS011;9799;48.214;16.388;2023-12-20T18:00:49;4.37;;;2.73;;
19329;SDS011;9799;48.214;16.388;2023-12-20T18:04:10;2.97;;;2.50;;
19329;SDS011;9799;48.214;16.388;2023-12-20T18:07:34;2.77;;;2.13;;
19329;SDS011;9799;48.214;16.388;2023-12-20T18:10:57;3.67;;;2.60;;
19329;SDS011;9799;48.214;16.388;2023-12-20T18:14:20;3.93;;;2.43;;
19329;SDS011;9799;48.214;16.388;2023-12-20T18:17:43;3.73;;;3.00;;
19329;SDS011;9799;48.214;16.388;2023-12-20T18:21:05;3.80;;;2.77;;
19329;SDS011;9799;48.214;16.388;2023-12-20T18:24:29;5.47;;;3.20;;
19329;SDS011;9799;48.214;16.388;2023-12-20T18:27:52;3.37;;;2.77;;
19329;SDS011;9799;48.214;16.388;2023-12-20T18:31:14;3.97;;;2.53;;
19329;SDS011;9799;48.214;16.388;2023-12-20T18:34:37;3.23;;;2.27;;
19329;SDS011;9799;48.214;16.388;2023-12-20T18:38:00;3.23;;;2.30;;
19329;SDS011;9799;48.214;16.388;2023-12-20T18:41:24;2.50;;;2.30;;
19329;SDS011;9799;48.214;16.388;2023-12-20T18:44:47;4.17;;;2.23;;
19329;SDS011;9799;48.214;16.388;2023-12-20T18:48:09;2.47;;;2.20;;
19329;SDS011;9799;48.214;16.388;2023-12-20T18:51:34;3.83;;;2.10;;
19329;SDS011;9799;48.214;16.388;2023-12-20T18:54:57;3.97;;;2.10;;
19329;SDS011;9799;48.214;16.388;2023-12-20T18:58:21;5.13;;;2.03;;
19329;SDS011;9799;48.214;16.388;2023-12-20T19:01:47;4.23;;;2.47;;
19329;SDS011;9799;48.214;16.388;2023-12-20T19:05:10;5.63;;;1.90;;
19329;SDS011;9799;48.214;16.388;2023-12-20T19:08:33;3.60;;;2.20;;
19329;SDS011;9799;48.214;16.388;2023-12-20T19:11:59;2.27;;;1.80;;
19329;SDS011;9799;48.214;16.388;2023-12-20T19:15:24;2.70;;;1.93;;
19329;SDS011;9799;48.214;16.388;2023-12-20T19:18:47;2.87;;;2.40;;
19329;SDS011;9799;48.214;16.388;2023-12-20T19:22:10;3.57;;;2.20;;
19329;SDS011;9799;48.214;16.388;2023-12-20T19:25:34;3.50;;;2.13;;
19329;SDS011;9799;48.214;16.388;2023-12-20T19:28:57;3.37;;;2.67;;
19329;SDS011;9799;48.214;16.388;2023-12-20T19:32:22;3.47;;;2.00;;
19329;SDS011;9799;48.214;16.388;2023-12-20T19:35:45;2.43;;;1.90;;
19329;SDS011;9799;48.214;16.388;2023-12-20T19:39:08;5.60;;;3.10;;
19329;SDS011;9799;48.214;16.388;2023-12-20T19:42:32;3.73;;;2.80;;
19329;SDS011;9799;48.214;16.388;2023-12-20T19:45:57;3.83;;;2.87;;
19329;SDS011;9799;48.214;16.388;2023-12-20T19:49:22;3.20;;;2.63;;
19329;SDS011;9799;48.214;16.388;2023-12-20T19:52:45;3.80;;;2.57;;
19329;SDS011;9799;48.214;16.388;2023-12-20T19:56:08;4.13;;;2.47;;
19329;SDS011;9799;48.214;16.388;2023-12-20T19:59:31;2.50;;;2.30;;
19329;SDS011;9799;48.214;16.388;2023-12-20T20:02:55;4.30;;;2.33;;
19329;SDS011;9799;48.214;16.388;2023-12-20T20:06:20;2.33;;;2.13;;
19329;SDS011;9799;48.214;16.388;2023-12-20T20:09:44;4.60;;;2.60;;